Corrientes, Argentina

1:53 PM ART on September 20, 2014 (GMT -0300)
Corrientes | Change Station
CLOSE
Current Station
Airport
Location: Corrientes,
Elevation: 203 ft
Nearby Weather Stations

Elev 203 ft 27.45 °S, 58.76 °W | Updated 53 minutes ago

Scattered Clouds
Scattered Clouds
75 °F
Feels Like 75 °F
N
12
Wind Variable Wind from South

Today
High -- | Low -- °F
--% Chance of Precip.
Yesterday
High -- | Low -- °F
Precip. -- in
6:47 AM 6:50 PM
Waning Crescent, 11% visible
Pressure 30.06 in
Visibility 6.2 miles
Clouds Scattered Clouds 3000 ft
Dew Point 57 °F
Humidity 53%
Rainfall 0.00 in
Snow Depth Not available.
UV 9 out of 12
Pollen Not available.
Air Quality Not available.
Flu Activity Not available.
METAR SARC 201600Z 18010KT 9999 SCT030 24/14 Q1018

More Conditions Fewer Conditions

Pressure 30.06 in
Visibility 6.2 miles
Clouds Scattered Clouds 3000 ft
Dew Point 57 °F
Humidity 53%
Rainfall 0.00 in
Snow Depth Not available.
UV 9 out of 12
Pollen Not available.
Air Quality Not available.
Flu Activity Not available.
METAR SARC 201600Z 18010KT 9999 SCT030 24/14 Q1018

More Conditions Fewer Conditions

10-Day Weather Forecast

Almanac

Astronomy

Sep. 20, 2014 Rise Set
Actual Time 6:47 AM ART 6:50 PM ART
Civil Twilight 6:23 AM ART 7:13 PM ART
Nautical Twilight 5:56 AM ART 7:40 PM ART
Astronomical Twilight 5:29 AM ART 8:08 PM ART
Moon 4:24 AM ART 3:56 PM ART
Length of Visible Light 12h 49m
Length of Day
12h 03m
Tomorrow will be 1m 37s longer.
Waning Crescent, 11% of the Moon is Illuminated
Today
Waning Crescent
Sep 24
New
Oct 1
First Quarter
Oct 8
Full
Oct 15
Last Quarter

Today's Extremes

Country Highs Country Lows

Community

WunderPhotos

Upload Photos

1,754,896 photos uploaded!

Nearby

Snow Depth

Not available.

Earthquake Activity

City Distance Mag. Time & Date
No recent earthquake activity has been reported nearby.
Minimum magnitude displayed is 2.5.

Coastal Water Temperatures

Place Temperature
No Stations Reporting

Nearby Weather Stations